Time;durP1;ratioP1;P1;durP2;ratioP2;P2;SDS_P1;SDS_P2;PMS_P1;PMS_P2;Temp;Humidity;BMP_temperature;BMP_pressure;BME280_temperature;BME280_humidity;BME280_pressure;Samples;Min_cycle;Max_cycle;Signal;HPM_P1;HPM_P2
2021/11/26 00:02:14;;;;;;;43.13;34.22;;;2.10;57.20;;;;;;4973375;28;20433;-85
2021/11/26 00:04:40;;;;;;;46.90;37.17;;;2.20;57.30;;;;;;4973374;28;20177;-85
2021/11/26 00:07:05;;;;;;;43.60;34.53;;;2.20;56.70;;;;;;4973840;28;20500;-85
2021/11/26 00:09:31;;;;;;;45.07;35.63;;;2.20;56.80;;;;;;4973327;28;20186;-84
2021/11/26 00:11:57;;;;;;;49.27;36.23;;;2.10;56.20;;;;;;4973254;28;20171;-84
2021/11/26 00:14:27;;;;;;;55.58;37.05;;;2.10;56.60;;;;;;4974639;28;20178;-85
2021/11/26 00:16:59;;;;;;;47.55;36.40;;;2.00;56.80;;;;;;4973379;28;20363;-84
2021/11/26 00:19:26;;;;;;;48.55;37.17;;;1.90;57.30;;;;;;4972897;28;20270;-85
2021/11/26 00:21:53;;;;;;;51.17;35.35;;;2.00;57.10;;;;;;4972692;28;20474;-84
2021/11/26 00:24:19;;;;;;;50.95;37.05;;;2.00;56.90;;;;;;4972606;28;20229;-86
2021/11/26 00:26:46;;;;;;;43.30;34.73;;;1.90;57.30;;;;;;4973208;28;20276;-85
2021/11/26 00:29:12;;;;;;;49.13;38.53;;;1.80;57.20;;;;;;4972792;28;20444;-84
2021/11/26 00:31:38;;;;;;;51.90;36.93;;;1.90;57.30;;;;;;4972840;28;20257;-85
2021/11/26 00:34:14;;;;;;;46.53;37.10;;;1.90;57.20;;;;;;4973190;28;20233;-88
2021/11/26 00:36:40;;;;;;;51.53;37.17;;;1.90;57.90;;;;;;4974741;28;20655;-88
2021/11/26 00:39:06;;;;;;;52.80;35.80;;;1.90;57.40;;;;;;4974101;28;20186;-88
2021/11/26 00:41:32;;;;;;;49.80;34.45;;;1.90;57.90;;;;;;4974144;28;20182;-87
2021/11/26 00:43:58;;;;;;;44.07;32.27;;;1.90;57.70;;;;;;4973917;28;20301;-87
2021/11/26 00:46:23;;;;;;;45.80;36.60;;;2.00;57.40;;;;;;4973830;28;20505;-87
2021/11/26 00:48:49;;;;;;;40.13;31.27;;;1.90;57.60;;;;;;4974612;28;20202;-86
2021/11/26 00:51:15;;;;;;;45.00;34.70;;;1.90;57.50;;;;;;4973668;28;20175;-87
2021/11/26 00:53:41;;;;;;;43.30;32.30;;;1.90;57.00;;;;;;4973654;28;20174;-87
2021/11/26 00:56:07;;;;;;;45.37;34.10;;;1.90;57.80;;;;;;4974837;28;20421;-88
2021/11/26 00:58:33;;;;;;;45.87;36.37;;;2.00;57.10;;;;;;4973400;28;20429;-87
2021/11/26 01:00:58;;;;;;;45.00;34.93;;;2.00;57.40;;;;;;4973799;28;20650;-88
2021/11/26 01:03:24;;;;;;;41.87;31.90;;;2.10;57.50;;;;;;4972692;28;20854;-88
2021/11/26 01:05:50;;;;;;;43.30;32.93;;;2.00;56.30;;;;;;4973088;28;20177;-87
2021/11/26 01:08:17;;;;;;;45.80;33.83;;;2.10;56.50;;;;;;4972993;28;20207;-88
2021/11/26 01:10:43;;;;;;;48.72;33.97;;;2.00;56.50;;;;;;4973872;28;20667;-89
2021/11/26 01:13:09;;;;;;;47.40;33.87;;;2.00;56.70;;;;;;4973730;28;20548;-87
2021/11/26 01:15:36;;;;;;;46.70;34.00;;;2.10;57.50;;;;;;4972571;28;20418;-88
2021/11/26 01:18:03;;;;;;;45.27;33.97;;;2.10;56.30;;;;;;4973442;28;20425;-87
2021/11/26 01:20:30;;;;;;;48.53;33.00;;;2.10;56.00;;;;;;4974113;28;20445;-88
2021/11/26 01:22:57;;;;;;;46.00;32.97;;;2.10;56.10;;;;;;4971560;28;20223;-85
2021/11/26 01:25:23;;;;;;;47.57;32.50;;;2.00;56.70;;;;;;4971966;28;20410;-84
2021/11/26 01:27:49;;;;;;;42.70;31.53;;;1.90;56.90;;;;;;4971533;28;20433;-84
2021/11/26 01:30:37;;;;;;;51.77;35.93;;;1.90;57.30;;;;;;4971371;28;20505;-86
2021/11/26 01:33:08;;;;;;;50.55;35.03;;;1.80;57.50;;;;;;4971358;28;20837;-84
2021/11/26 01:35:35;;;;;;;49.43;36.37;;;1.90;58.40;;;;;;4971062;28;20182;-84
2021/11/26 01:38:04;;;;;;;45.65;35.75;;;1.90;56.90;;;;;;4971271;28;20848;-84
2021/11/26 01:40:29;;;;;;;46.28;34.92;;;1.90;58.10;;;;;;4971513;28;20668;-83
2021/11/26 01:42:56;;;;;;;51.92;34.97;;;2.00;57.20;;;;;;4969955;28;20438;-84
2021/11/26 01:45:22;;;;;;;43.08;31.48;;;1.90;57.50;;;;;;4970600;28;20175;-84
2021/11/26 01:47:48;;;;;;;47.60;35.58;;;1.90;57.60;;;;;;4971052;28;20210;-85
2021/11/26 01:50:15;;;;;;;47.93;35.07;;;2.00;57.10;;;;;;4970802;28;20209;-86
2021/11/26 01:52:41;;;;;;;47.45;33.75;;;2.00;56.80;;;;;;4971637;28;20178;-85
2021/11/26 01:55:09;;;;;;;50.92;39.03;;;2.00;57.10;;;;;;4973361;28;20178;-84
2021/11/26 01:57:35;;;;;;;49.28;36.38;;;1.90;56.90;;;;;;4973566;28;20244;-84
2021/11/26 02:00:03;;;;;;;47.95;35.20;;;1.90;56.90;;;;;;4971557;28;20178;-84
2021/11/26 02:02:29;;;;;;;49.95;38.03;;;1.90;57.60;;;;;;4970258;28;20183;-85
2021/11/26 02:04:55;;;;;;;44.00;35.00;;;2.10;57.10;;;;;;4970426;28;20225;-84
2021/11/26 02:07:20;;;;;;;48.27;35.90;;;2.10;57.00;;;;;;4970686;28;20199;-85
2021/11/26 02:09:46;;;;;;;49.67;35.93;;;2.00;57.30;;;;;;4970976;28;20197;-85
2021/11/26 02:12:12;;;;;;;44.97;34.67;;;2.00;57.00;;;;;;4970480;28;20189;-85
2021/11/26 02:14:37;;;;;;;51.07;35.47;;;1.80;57.10;;;;;;4971158;28;20185;-84
2021/11/26 02:17:03;;;;;;;44.30;35.57;;;1.90;57.90;;;;;;4969949;28;20178;-84
2021/11/26 02:19:29;;;;;;;45.77;36.20;;;1.90;57.90;;;;;;4970881;28;20210;-84
2021/11/26 02:21:55;;;;;;;48.37;37.37;;;2.10;56.40;;;;;;4970596;28;20236;-83
2021/11/26 02:24:22;;;;;;;46.95;35.38;;;1.90;57.00;;;;;;4969998;28;20210;-84
2021/11/26 02:26:49;;;;;;;48.67;35.15;;;1.90;57.40;;;;;;4970240;28;20182;-85
2021/11/26 02:29:16;;;;;;;50.78;35.50;;;1.90;57.80;;;;;;4970203;28;20186;-84
2021/11/26 02:31:45;;;;;;;45.67;34.72;;;1.90;58.20;;;;;;4970827;28;20524;-83
2021/11/26 02:34:11;;;;;;;43.67;32.83;;;2.00;57.70;;;;;;4969644;28;20216;-83
2021/11/26 02:36:37;;;;;;;46.73;36.77;;;2.00;58.30;;;;;;4971404;28;20209;-84
2021/11/26 02:39:09;;;;;;;44.00;34.23;;;2.00;58.30;;;;;;4986062;28;20473;-84
2021/11/26 02:41:37;;;;;;;48.73;34.00;;;2.10;57.70;;;;;;4970746;28;20671;-83
2021/11/26 02:44:03;;;;;;;42.00;33.17;;;1.90;57.30;;;;;;4969779;28;20509;-85
2021/11/26 02:46:29;;;;;;;47.40;33.65;;;1.90;57.90;;;;;;4970239;28;20923;-84
2021/11/26 02:48:54;;;;;;;41.07;32.20;;;1.90;58.00;;;;;;4969816;28;20209;-88
2021/11/26 02:51:20;;;;;;;47.13;34.97;;;1.90;57.70;;;;;;4972198;28;20266;-87
2021/11/26 02:53:46;;;;;;;42.90;32.47;;;2.00;57.60;;;;;;4971913;28;20177;-87
2021/11/26 02:56:11;;;;;;;42.57;34.10;;;2.00;57.60;;;;;;4971803;28;20175;-87
2021/11/26 02:58:37;;;;;;;44.40;34.97;;;2.00;57.30;;;;;;4971107;28;20545;-87
2021/11/26 03:01:03;;;;;;;41.30;34.40;;;2.00;58.00;;;;;;4971545;28;20282;-87
2021/11/26 03:03:30;;;;;;;44.07;34.47;;;2.00;57.70;;;;;;4971319;28;20209;-87
2021/11/26 03:05:57;;;;;;;42.72;34.10;;;2.00;57.40;;;;;;4971598;28;20413;-88
2021/11/26 03:08:23;;;;;;;47.40;35.40;;;2.00;57.50;;;;;;4971380;28;20182;-85
2021/11/26 03:10:49;;;;;;;46.60;34.00;;;2.10;58.00;;;;;;4970328;28;20758;-85
2021/11/26 03:13:15;;;;;;;46.40;31.80;;;2.00;57.60;;;;;;4968972;28;20637;-83
2021/11/26 03:15:42;;;;;;;46.53;34.43;;;2.00;57.90;;;;;;4969161;28;20824;-85
2021/11/26 03:18:09;;;;;;;44.17;34.23;;;2.00;58.00;;;;;;4968842;28;20446;-84
2021/11/26 03:20:34;;;;;;;44.63;36.55;;;2.00;58.20;;;;;;4969226;28;20429;-84
2021/11/26 03:23:00;;;;;;;44.10;34.70;;;2.00;58.00;;;;;;4969130;28;20556;-86
2021/11/26 03:25:26;;;;;;;50.63;35.30;;;2.00;57.70;;;;;;4969973;28;20181;-85
2021/11/26 03:27:53;;;;;;;46.23;33.90;;;2.00;57.60;;;;;;4969176;28;20178;-83
2021/11/26 03:30:20;;;;;;;49.63;36.78;;;2.00;58.10;;;;;;4969209;28;20823;-85
2021/11/26 03:32:46;;;;;;;48.45;36.67;;;2.00;58.20;;;;;;4969827;28;20186;-84
2021/11/26 03:35:14;;;;;;;52.13;37.10;;;2.00;57.90;;;;;;4969706;28;20182;-84
2021/11/26 03:37:40;;;;;;;46.72;34.10;;;2.00;58.00;;;;;;4969436;28;20554;-84
2021/11/26 03:40:08;;;;;;;43.53;35.00;;;2.00;59.20;;;;;;4969934;28;20178;-85
2021/11/26 03:42:34;;;;;;;47.45;33.10;;;1.90;58.30;;;;;;4968680;28;20189;-85
2021/11/26 03:45:00;;;;;;;49.25;36.35;;;1.80;58.50;;;;;;4969331;28;20180;-84
2021/11/26 03:47:26;;;;;;;46.03;36.30;;;1.90;59.40;;;;;;4965255;28;20183;-84
2021/11/26 03:49:55;;;;;;;47.20;37.40;;;1.90;58.00;;;;;;4983284;28;20210;-83
2021/11/26 03:52:20;;;;;;;47.28;36.25;;;1.90;58.80;;;;;;4969470;28;20641;-83
2021/11/26 03:54:46;;;;;;;50.60;35.20;;;2.00;58.90;;;;;;4969722;28;20214;-82
2021/11/26 03:57:12;;;;;;;47.67;34.43;;;2.00;58.30;;;;;;4968782;28;20190;-81
2021/11/26 03:59:38;;;;;;;43.87;32.77;;;2.00;58.00;;;;;;4970655;28;20421;-85
2021/11/26 04:02:04;;;;;;;44.87;35.13;;;2.00;58.60;;;;;;4969945;28;20517;-85
2021/11/26 04:04:30;;;;;;;50.83;38.40;;;2.00;59.10;;;;;;4970262;28;20708;-85
2021/11/26 04:06:57;;;;;;;50.87;39.20;;;2.00;59.50;;;;;;4970278;28;20671;-84
2021/11/26 04:09:23;;;;;;;44.88;36.70;;;2.00;60.30;;;;;;4969321;28;20914;-84
2021/11/26 04:11:49;;;;;;;50.23;39.00;;;2.00;61.40;;;;;;4969447;28;20186;-84
2021/11/26 04:14:14;;;;;;;49.42;36.55;;;1.90;61.60;;;;;;4970841;28;20472;-85
2021/11/26 04:16:40;;;;;;;46.30;34.43;;;1.90;63.00;;;;;;4984911;28;20183;-84
2021/11/26 04:19:06;;;;;;;52.37;38.40;;;1.90;63.30;;;;;;4985824;28;20925;-83
2021/11/26 04:21:33;;;;;;;50.65;35.67;;;2.00;64.90;;;;;;4985060;28;20194;-84
2021/11/26 04:23:59;;;;;;;46.72;37.05;;;2.00;65.40;;;;;;4985474;28;20209;-85
2021/11/26 04:26:25;;;;;;;47.43;36.00;;;1.90;64.80;;;;;;4970822;28;20500;-86
2021/11/26 04:28:51;;;;;;;49.67;38.33;;;2.00;66.00;;;;;;4972231;28;20884;-85
2021/11/26 04:31:17;;;;;;;45.90;35.63;;;2.00;65.10;;;;;;4972562;28;20910;-85
2021/11/26 04:33:43;;;;;;;44.77;34.93;;;2.00;65.90;;;;;;4973152;28;20433;-84
2021/11/26 04:36:08;;;;;;;48.63;37.47;;;2.00;65.70;;;;;;4972833;28;20674;-85
2021/11/26 04:38:34;;;;;;;50.90;36.53;;;2.00;64.90;;;;;;4972075;28;20552;-84
2021/11/26 04:41:00;;;;;;;44.70;32.97;;;2.00;65.30;;;;;;4971820;28;20175;-86
2021/11/26 04:43:26;;;;;;;47.40;34.37;;;2.10;65.10;;;;;;4971905;28;20801;-84
2021/11/26 04:45:52;;;;;;;45.07;32.63;;;2.10;64.70;;;;;;4974032;28;20409;-83
2021/11/26 04:48:22;;;;;;;44.50;34.10;;;2.20;64.40;;;;;;4972259;28;20207;-84
2021/11/26 04:50:49;;;;;;;45.88;33.88;;;2.20;64.10;;;;;;4972148;28;20429;-82
2021/11/26 04:53:15;;;;;;;46.22;33.97;;;2.20;63.70;;;;;;4971803;28;20184;-82
2021/11/26 04:55:42;;;;;;;39.85;32.47;;;2.30;64.00;;;;;;4971997;28;20248;-84
2021/11/26 04:58:07;;;;;;;45.80;34.50;;;2.30;63.90;;;;;;4972267;28;20181;-86
2021/11/26 05:00:34;;;;;;;47.10;33.80;;;2.30;63.40;;;;;;4972567;28;20426;-84
2021/11/26 05:02:59;;;;;;;43.47;32.03;;;2.20;64.10;;;;;;4968235;28;20436;-83
2021/11/26 05:05:25;;;;;;;44.33;31.50;;;2.30;63.70;;;;;;4968148;28;20227;-82
2021/11/26 05:07:52;;;;;;;42.50;33.30;;;2.30;63.70;;;;;;4967681;28;20175;-84
2021/11/26 05:10:19;;;;;;;47.53;35.27;;;2.30;63.60;;;;;;4968820;28;20415;-85
2021/11/26 05:12:56;;;;;;;43.30;33.00;;;2.30;63.20;;;;;;4968454;28;20434;-85
2021/11/26 05:15:25;;;;;;;55.63;35.73;;;2.30;62.90;;;;;;4952536;29;20438;-83
2021/11/26 05:17:56;;;;;;;44.90;37.00;;;2.30;63.60;;;;;;4953904;28;20457;-83
2021/11/26 05:20:22;;;;;;;46.27;37.17;;;2.20;63.50;;;;;;4968387;28;20439;-83
2021/11/26 05:22:51;;;;;;;45.93;35.77;;;2.30;63.20;;;;;;4967785;28;20635;-82
2021/11/26 05:25:19;;;;;;;43.55;35.33;;;2.30;62.90;;;;;;4968034;28;20470;-81
2021/11/26 05:27:44;;;;;;;44.05;34.55;;;2.30;61.90;;;;;;4967875;28;20190;-82
2021/11/26 05:30:11;;;;;;;50.40;36.00;;;2.30;62.50;;;;;;4967925;28;20182;-82
2021/11/26 05:32:38;;;;;;;44.53;32.83;;;2.30;61.70;;;;;;4968002;28;20647;-83
2021/11/26 05:35:07;;;;;;;39.27;31.63;;;2.30;60.60;;;;;;4968554;28;20426;-82
2021/11/26 05:37:32;;;;;;;46.73;35.03;;;2.40;61.10;;;;;;4967272;28;20422;-80
2021/11/26 05:39:58;;;;;;;46.30;35.30;;;2.40;61.40;;;;;;4968477;28;20415;-84
2021/11/26 05:42:24;;;;;;;44.30;31.63;;;2.40;61.30;;;;;;4968043;28;20191;-84
2021/11/26 05:44:49;;;;;;;41.40;29.33;;;2.40;60.90;;;;;;4968269;28;20203;-82
2021/11/26 05:47:15;;;;;;;42.27;32.47;;;2.40;60.70;;;;;;4968152;28;20225;-83
2021/11/26 05:49:40;;;;;;;43.80;33.63;;;2.40;60.20;;;;;;4967649;28;20180;-84
2021/11/26 05:52:06;;;;;;;42.23;31.60;;;2.30;60.30;;;;;;4968512;28;20187;-82
2021/11/26 05:54:32;;;;;;;41.93;30.80;;;2.30;60.90;;;;;;4968822;28;20186;-83
2021/11/26 05:56:58;;;;;;;41.03;30.20;;;2.30;60.20;;;;;;4968239;28;20198;-86
2021/11/26 05:59:23;;;;;;;38.57;28.20;;;2.20;60.40;;;;;;4968721;28;21237;-85
2021/11/26 06:01:49;;;;;;;40.33;30.50;;;2.10;60.10;;;;;;4968374;28;20643;-85
2021/11/26 06:04:15;;;;;;;40.53;31.57;;;2.10;61.10;;;;;;4969216;28;20691;-84
2021/11/26 06:06:40;;;;;;;42.13;31.73;;;2.10;61.00;;;;;;4973380;28;20203;-84
2021/11/26 06:09:06;;;;;;;40.50;32.17;;;2.00;60.70;;;;;;4972483;28;20179;-84
2021/11/26 06:11:32;;;;;;;45.10;31.40;;;1.90;61.30;;;;;;4972109;28;20229;-83
2021/11/26 06:13:57;;;;;;;46.03;33.57;;;2.00;61.80;;;;;;4974008;28;20178;-84
2021/11/26 06:16:23;;;;;;;48.17;34.20;;;2.00;62.10;;;;;;4972257;28;20190;-83
2021/11/26 06:18:49;;;;;;;40.97;32.00;;;2.00;61.30;;;;;;4972012;28;20575;-83
2021/11/26 06:21:14;;;;;;;47.10;35.40;;;2.10;60.70;;;;;;4971739;28;20243;-82
2021/11/26 06:23:40;;;;;;;44.90;31.60;;;2.00;61.90;;;;;;4972234;28;20265;-82
2021/11/26 06:26:07;;;;;;;43.33;32.90;;;2.10;62.20;;;;;;4972804;28;20553;-83
2021/11/26 06:28:35;;;;;;;40.45;29.65;;;2.10;61.40;;;;;;4971879;28;20193;-83
2021/11/26 06:31:01;;;;;;;43.60;34.03;;;2.10;60.90;;;;;;4972223;28;20185;-83
2021/11/26 06:33:27;;;;;;;53.83;36.60;;;2.10;60.50;;;;;;4972054;28;20417;-83
2021/11/26 06:35:52;;;;;;;45.33;32.57;;;2.10;60.70;;;;;;4972389;28;20185;-82
2021/11/26 06:38:18;;;;;;;43.70;33.77;;;2.20;61.40;;;;;;4971869;28;20317;-83
2021/11/26 06:40:44;;;;;;;47.40;35.37;;;2.10;60.90;;;;;;4971721;28;20753;-83
2021/11/26 06:43:09;;;;;;;41.73;34.10;;;2.20;60.00;;;;;;4972020;28;20205;-82
2021/11/26 06:45:35;;;;;;;42.83;32.47;;;2.10;59.80;;;;;;4971398;28;20697;-84
2021/11/26 06:48:01;;;;;;;40.57;32.33;;;2.10;60.00;;;;;;4971018;28;20213;-82
2021/11/26 06:50:26;;;;;;;40.93;30.77;;;2.20;60.10;;;;;;4971293;28;20229;-83
2021/11/26 06:52:52;;;;;;;41.30;32.30;;;2.20;60.90;;;;;;4971723;28;20185;-85
2021/11/26 06:55:18;;;;;;;40.57;29.97;;;2.30;60.40;;;;;;4971823;28;20183;-82
2021/11/26 06:57:44;;;;;;;37.70;30.43;;;2.30;60.10;;;;;;4971939;28;20186;-82
2021/11/26 07:00:13;;;;;;;37.27;28.83;;;2.40;60.10;;;;;;4971584;28;20426;-83
2021/11/26 07:02:39;;;;;;;40.15;31.52;;;2.50;60.00;;;;;;4971549;28;20454;-82
2021/11/26 07:05:05;;;;;;;43.50;32.50;;;2.50;60.30;;;;;;4971417;28;20187;-82
2021/11/26 07:07:31;;;;;;;33.67;26.47;;;2.60;59.60;;;;;;4971457;28;20422;-82
2021/11/26 07:09:57;;;;;;;39.03;28.20;;;2.60;58.50;;;;;;4971666;28;20441;-83
2021/11/26 07:12:22;;;;;;;32.87;26.00;;;2.70;58.90;;;;;;4972077;28;20253;-82
2021/11/26 07:14:48;;;;;;;36.00;27.87;;;2.70;58.30;;;;;;4972037;28;20193;-82
2021/11/26 07:17:14;;;;;;;36.67;27.43;;;2.70;58.20;;;;;;4971303;28;20428;-82
2021/11/26 07:19:43;;;;;;;36.70;27.37;;;2.70;58.20;;;;;;4972305;28;20269;-80
2021/11/26 07:22:09;;;;;;;35.77;26.83;;;2.60;58.10;;;;;;4971815;28;20446;-82
2021/11/26 07:24:35;;;;;;;34.83;26.13;;;2.60;59.00;;;;;;4971182;28;20491;-82
2021/11/26 07:27:01;;;;;;;35.90;27.13;;;2.60;58.70;;;;;;4971584;28;20510;-81
2021/11/26 07:29:27;;;;;;;39.10;29.10;;;2.70;59.40;;;;;;4972180;28;20178;-82
2021/11/26 07:31:53;;;;;;;38.47;30.20;;;2.70;59.20;;;;;;4971913;28;20414;-82
2021/11/26 07:34:19;;;;;;;36.23;30.20;;;2.80;58.80;;;;;;4972276;28;20500;-83
2021/11/26 07:36:45;;;;;;;37.63;29.37;;;2.70;58.00;;;;;;4972382;28;20210;-82
2021/11/26 07:39:10;;;;;;;37.47;29.60;;;2.60;58.40;;;;;;4971900;28;20937;-82
2021/11/26 07:41:36;;;;;;;44.10;30.27;;;2.70;58.70;;;;;;4971266;28;20421;-82
2021/11/26 07:44:02;;;;;;;41.60;28.13;;;2.70;58.60;;;;;;4971442;28;20245;-82
2021/11/26 07:46:28;;;;;;;35.70;26.63;;;2.80;58.00;;;;;;4972057;28;20185;-82
2021/11/26 07:48:55;;;;;;;38.23;26.77;;;2.70;58.00;;;;;;4971816;28;20480;-82
2021/11/26 07:51:21;;;;;;;37.10;26.63;;;2.70;58.40;;;;;;4972144;28;20218;-82
2021/11/26 07:53:47;;;;;;;38.97;27.70;;;2.70;57.90;;;;;;4972179;28;20461;-82
2021/11/26 07:56:12;;;;;;;42.33;28.47;;;2.60;58.30;;;;;;4972843;28;20182;-82
2021/11/26 07:58:38;;;;;;;36.07;27.20;;;2.70;59.20;;;;;;4972088;28;20689;-84
2021/11/26 08:01:04;;;;;;;39.37;26.23;;;2.70;58.20;;;;;;4972532;28;20278;-80
2021/11/26 08:03:29;;;;;;;36.70;26.77;;;2.70;58.90;;;;;;4975076;28;20207;-83
2021/11/26 08:05:56;;;;;;;34.87;25.63;;;2.80;58.40;;;;;;4975396;28;20174;-84
2021/11/26 08:08:22;;;;;;;41.93;27.47;;;2.80;58.60;;;;;;4975716;28;20647;-83
2021/11/26 08:10:47;;;;;;;36.40;26.53;;;2.90;58.20;;;;;;4972696;28;20444;-83
2021/11/26 08:13:14;;;;;;;42.00;26.23;;;2.90;57.80;;;;;;4970227;28;20437;-83
2021/11/26 08:15:40;;;;;;;35.80;26.13;;;2.90;57.70;;;;;;4974785;28;20218;-84
2021/11/26 08:18:06;;;;;;;35.00;26.60;;;2.90;58.10;;;;;;4974793;28;20827;-84
2021/11/26 08:20:33;;;;;;;45.10;27.63;;;2.90;58.20;;;;;;4968388;28;20179;-84
2021/11/26 08:22:59;;;;;;;33.53;27.13;;;2.90;57.80;;;;;;4976615;28;20531;-85
2021/11/26 08:25:26;;;;;;;34.93;27.13;;;3.00;58.30;;;;;;4975822;28;20414;-83
2021/11/26 08:27:53;;;;;;;35.57;26.57;;;3.00;58.00;;;;;;4975238;28;20831;-84
2021/11/26 08:30:20;;;;;;;34.90;24.97;;;3.10;58.60;;;;;;4974703;28;20426;-85
2021/11/26 08:32:49;;;;;;;37.40;26.70;;;3.10;58.80;;;;;;4974702;28;20422;-84
2021/11/26 08:35:15;;;;;;;38.20;27.07;;;3.00;58.30;;;;;;4974542;28;20461;-84
2021/11/26 08:37:41;;;;;;;37.17;25.50;;;3.10;58.50;;;;;;4976007;28;20473;-84
2021/11/26 08:40:08;;;;;;;36.63;28.63;;;3.00;59.20;;;;;;4974067;28;20429;-82
2021/11/26 08:42:36;;;;;;;40.83;27.87;;;3.10;59.60;;;;;;4974554;28;20214;-87
2021/11/26 08:45:03;;;;;;;39.47;27.37;;;3.10;59.90;;;;;;4975665;28;20441;-87
2021/11/26 08:47:29;;;;;;;38.20;28.57;;;3.10;60.40;;;;;;4975178;28;20488;-86
2021/11/26 08:49:55;;;;;;;38.20;28.00;;;3.00;60.40;;;;;;4975643;28;20509;-84
2021/11/26 08:52:21;;;;;;;33.73;25.90;;;3.00;60.80;;;;;;4975686;28;20653;-88
2021/11/26 08:54:47;;;;;;;35.67;26.43;;;3.00;61.70;;;;;;4975971;28;20418;-87
2021/11/26 08:57:16;;;;;;;35.07;25.93;;;3.00;62.20;;;;;;4974241;28;20492;-85
2021/11/26 08:59:42;;;;;;;43.10;28.40;;;3.00;63.00;;;;;;4975203;28;20426;-86
2021/11/26 09:02:09;;;;;;;37.83;25.93;;;3.00;63.40;;;;;;4974385;28;20428;-85
2021/11/26 09:04:34;;;;;;;41.07;28.60;;;3.00;63.40;;;;;;4974741;28;20477;-85
2021/11/26 09:07:00;;;;;;;37.33;26.80;;;3.00;63.70;;;;;;4974864;28;20419;-85
2021/11/26 09:09:27;;;;;;;37.83;27.00;;;2.90;63.50;;;;;;4974036;28;20214;-86
2021/11/26 09:11:53;;;;;;;39.30;28.50;;;3.00;64.70;;;;;;4985709;28;20187;-85
2021/11/26 09:14:19;;;;;;;40.93;28.53;;;3.00;64.40;;;;;;4990989;28;20461;-86
2021/11/26 09:16:45;;;;;;;37.77;27.90;;;3.00;65.00;;;;;;4973824;28;20422;-85
2021/11/26 09:19:12;;;;;;;36.40;27.83;;;3.00;64.90;;;;;;4971021;28;20441;-85
2021/11/26 09:21:38;;;;;;;38.53;28.00;;;3.00;64.70;;;;;;4983063;28;20845;-84
2021/11/26 09:24:04;;;;;;;38.77;29.27;;;3.00;63.90;;;;;;4974099;28;20477;-84
2021/11/26 09:26:33;;;;;;;39.80;28.53;;;3.10;63.30;;;;;;4974005;28;20422;-86
2021/11/26 09:28:59;;;;;;;41.23;28.33;;;3.10;62.50;;;;;;4973746;28;20477;-83
2021/11/26 09:31:24;;;;;;;40.73;29.47;;;3.10;64.00;;;;;;4973233;28;20422;-82
2021/11/26 09:33:52;;;;;;;36.70;28.20;;;3.20;63.60;;;;;;4974403;28;20422;-82
2021/11/26 09:36:18;;;;;;;40.77;29.80;;;3.20;63.30;;;;;;4973606;28;20214;-83
2021/11/26 09:38:44;;;;;;;38.30;30.23;;;3.20;63.30;;;;;;4973381;28;20430;-83
2021/11/26 09:41:13;;;;;;;44.20;29.67;;;3.20;63.60;;;;;;4974181;28;20441;-83
2021/11/26 09:43:39;;;;;;;40.83;29.90;;;3.30;63.70;;;;;;4973541;28;20592;-82
2021/11/26 09:46:05;;;;;;;38.73;29.90;;;3.20;63.90;;;;;;4973388;28;20438;-82
2021/11/26 09:48:35;;;;;;;39.03;29.63;;;3.10;62.20;;;;;;4990061;28;20414;-84
2021/11/26 09:51:03;;;;;;;41.70;30.70;;;3.10;62.50;;;;;;4989806;28;20766;-83
2021/11/26 09:53:29;;;;;;;47.80;31.50;;;3.30;62.90;;;;;;4978026;28;20530;-84
2021/11/26 09:55:59;;;;;;;43.00;31.00;;;3.20;62.40;;;;;;4991016;28;20454;-85
2021/11/26 09:58:32;;;;;;;39.97;29.73;;;3.20;62.00;;;;;;4975225;28;20446;-85
2021/11/26 10:01:01;;;;;;;40.47;30.53;;;3.20;61.50;;;;;;4976037;28;20903;-82
2021/11/26 10:03:50;;;;;;;39.53;29.03;;;3.20;61.70;;;;;;4988677;28;21028;-81
2021/11/26 10:06:22;;;;;;;45.10;29.40;;;3.30;62.30;;;;;;4981581;28;20435;-83
2021/11/26 10:08:58;;;;;;;44.43;31.93;;;3.30;62.20;;;;;;4969806;28;20457;-84
2021/11/26 10:11:26;;;;;;;42.47;31.03;;;3.30;61.00;;;;;;4975123;28;20465;-83
2021/11/26 10:13:52;;;;;;;40.77;29.10;;;3.30;60.40;;;;;;4973382;28;20423;-85
2021/11/26 10:16:18;;;;;;;40.20;29.17;;;3.40;61.50;;;;;;4989234;28;20433;-84
2021/11/26 10:18:49;;;;;;;36.77;29.40;;;3.40;61.10;;;;;;4974269;28;20422;-83
2021/11/26 10:21:15;;;;;;;40.20;28.77;;;3.40;60.80;;;;;;4972478;28;20575;-81
2021/11/26 10:23:47;;;;;;;36.97;28.23;;;3.40;61.40;;;;;;4971847;28;20565;-79
2021/11/26 10:26:27;;;;;;;43.57;28.27;;;3.40;61.00;;;;;;4970087;28;20426;-81
2021/11/26 10:29:01;;;;;;;43.80;28.80;;;3.40;60.90;;;;;;4973538;28;20481;-80
2021/11/26 10:31:34;;;;;;;45.23;30.47;;;3.40;61.10;;;;;;4972634;28;20436;-81
2021/11/26 10:34:03;;;;;;;40.60;29.30;;;3.50;61.20;;;;;;4972613;28;20805;-82
2021/11/26 10:36:46;;;;;;;52.23;30.40;;;3.50;60.80;;;;;;4972756;28;20418;-82
2021/11/26 10:39:18;;;;;;;52.10;31.43;;;3.60;61.30;;;;;;4972200;28;20432;-81
2021/11/26 10:41:49;;;;;;;50.13;31.53;;;3.60;60.60;;;;;;4972863;28;20430;-82
2021/11/26 10:44:16;;;;;;;42.27;30.17;;;3.60;60.70;;;;;;4971827;28;20609;-82
2021/11/26 10:47:01;;;;;;;44.23;29.67;;;3.60;61.10;;;;;;4971335;28;20426;-83
2021/11/26 10:56:49;;;;;;;40.37;27.43;;;3.70;60.80;;;;;;4943512;28;20504;-81
2021/11/26 10:58:13;;;;;;;43.00;28.80;;;3.70;60.20;;;;;;4968405;28;20826;-81
2021/11/26 11:00:39;;;;;;;39.23;26.17;;;3.70;61.40;;;;;;4953703;29;20457;-82
2021/11/26 11:03:05;;;;;;;43.27;27.83;;;3.70;61.00;;;;;;4961511;28;20466;-82
2021/11/26 11:05:38;;;;;;;36.43;25.63;;;3.70;60.80;;;;;;4972904;28;20175;-84
2021/11/26 11:08:20;;;;;;;42.10;29.60;;;3.70;60.00;;;;;;4968697;28;20194;-82
2021/11/26 11:10:46;;;;;;;38.80;26.80;;;3.80;60.60;;;;;;4953548;28;20430;-82
2021/11/26 11:13:23;;;;;;;44.77;30.33;;;3.70;59.80;;;;;;4954967;28;20457;-81
2021/11/26 11:15:50;;;;;;;38.97;27.27;;;3.80;59.60;;;;;;4953374;28;20423;-82
2021/11/26 11:18:17;;;;;;;37.70;25.87;;;3.80;60.70;;;;;;4952924;28;20509;-82
2021/11/26 11:20:45;;;;;;;37.30;26.17;;;3.80;59.60;;;;;;4952877;28;20423;-82
2021/11/26 11:23:14;;;;;;;37.17;26.60;;;3.90;60.10;;;;;;4952450;28;20473;-82
2021/11/26 11:25:41;;;;;;;36.53;26.30;;;3.90;60.00;;;;;;4952937;28;20419;-81
2021/11/26 11:28:09;;;;;;;32.90;24.43;;;3.80;59.70;;;;;;4952634;29;20451;-81
2021/11/26 11:30:37;;;;;;;37.07;27.20;;;3.90;61.30;;;;;;4952577;29;20425;-82
2021/11/26 11:33:03;;;;;;;40.20;28.90;;;3.80;61.80;;;;;;4971357;28;21070;-83
2021/11/26 11:35:32;;;;;;;37.77;27.57;;;3.80;62.00;;;;;;4970119;28;20435;-83
2021/11/26 11:38:00;;;;;;;49.17;29.63;;;3.80;62.00;;;;;;4956367;29;20466;-82
2021/11/26 11:40:42;;;;;;;35.90;25.93;;;3.80;62.40;;;;;;4956320;28;20430;-82
2021/11/26 11:43:13;;;;;;;40.43;26.60;;;3.80;63.00;;;;;;4956754;28;20472;-82
2021/11/26 11:45:41;;;;;;;39.57;27.00;;;3.80;62.60;;;;;;4956089;28;20430;-82
2021/11/26 11:48:09;;;;;;;35.37;27.20;;;3.90;62.20;;;;;;4955997;29;20442;-82
2021/11/26 11:50:44;;;;;;;36.80;27.00;;;3.90;62.60;;;;;;4956114;29;20419;-82
2021/11/26 11:53:22;;;;;;;37.93;25.97;;;4.00;62.30;;;;;;4956324;28;20418;-82
2021/11/26 11:55:48;;;;;;;40.03;25.30;;;3.90;61.00;;;;;;4956727;28;20441;-84
2021/11/26 11:58:16;;;;;;;33.47;24.17;;;4.00;61.40;;;;;;4973245;28;20841;-81
2021/11/26 12:00:44;;;;;;;35.10;27.40;;;4.00;61.30;;;;;;4975582;28;20414;-80
2021/11/26 12:03:16;;;;;;;37.63;25.97;;;3.90;61.80;;;;;;4975012;28;20461;-82
2021/11/26 12:05:55;;;;;;;36.70;25.17;;;3.90;60.10;;;;;;4976820;28;20827;-81
2021/11/26 12:08:20;;;;;;;44.60;31.20;;;3.90;61.30;;;;;;4974049;28;20418;-81
2021/11/26 12:10:55;;;;;;;32.70;22.67;;;4.00;61.70;;;;;;4973421;28;20967;-81
2021/11/26 12:13:31;;;;;;;31.57;23.53;;;4.00;61.30;;;;;;4973001;28;20615;-82
2021/11/26 12:16:07;;;;;;;31.60;23.17;;;4.00;60.80;;;;;;4973278;28;20425;-83
2021/11/26 12:18:53;;;;;;;36.07;25.43;;;4.00;60.70;;;;;;4973121;28;20430;-82
2021/11/26 12:21:33;;;;;;;51.77;26.47;;;4.00;60.30;;;;;;4971674;28;20457;-84
2021/11/26 12:24:08;;;;;;;38.30;24.20;;;4.00;60.40;;;;;;4974511;28;20473;-84
2021/11/26 12:26:47;;;;;;;43.03;25.20;;;4.00;60.40;;;;;;4974442;28;20425;-83
2021/11/26 12:29:14;;;;;;;38.30;24.60;;;4.00;59.90;;;;;;4974820;28;20422;-85
2021/11/26 12:31:40;;;;;;;38.00;25.57;;;4.00;59.40;;;;;;4975061;28;20415;-85
2021/11/26 12:34:15;;;;;;;36.37;25.73;;;4.00;60.00;;;;;;4975073;28;20430;-83
2021/11/26 12:36:46;;;;;;;35.30;24.30;;;4.10;60.30;;;;;;4975726;28;20417;-83
2021/11/26 12:39:24;;;;;;;31.60;23.93;;;4.10;60.10;;;;;;4975053;28;20418;-84
2021/11/26 12:41:53;;;;;;;32.87;23.63;;;4.10;59.40;;;;;;4974523;28;20461;-85
2021/11/26 12:44:23;;;;;;;33.80;22.63;;;4.10;59.20;;;;;;4974063;28;20841;-84